NCAR-RAP Real-Time Weather Data

Output produced by METARs form (06 May 2021  16:07 UTC)
found at http://weather.rap.ucar.edu/surface/
 
KRMG 061553Z AUTO 01009KT 10SM CLR 19/06 A3012 RMK AO2 SLP194 T01890056
KRMG 061453Z AUTO 36013G21KT 10SM CLR 18/06 A3014 RMK AO2 SLP199 T01780056 50003
KRMG 061353Z AUTO 36013KT 10SM CLR 17/07 A3014 RMK AO2 SLP200 T01670067
KRMG 061253Z AUTO VRB03KT 10SM CLR 14/08 A3013 RMK AO2 SLP197 T01440083
KRMG 061153Z AUTO 00000KT 10SM CLR 11/08 A3013 RMK AO2 SLP195 T01060078 10128 20083 53018
KRMG 061053Z AUTO 00000KT 10SM CLR 09/06 A3010 RMK AO2 SLP187 T00890061
KRMG 060953Z AUTO 31004KT 10SM CLR 11/07 A3008 RMK AO2 SLP180 T01060072
KRMG 060853Z AUTO 32005KT 10SM CLR 11/07 A3007 RMK AO2 SLP177 T01110072 55004
KRMG 060753Z AUTO 32005KT 10SM CLR 12/08 A3006 RMK AO2 SLP174 T01170078
KRMG 060653Z AUTO 33004KT 10SM CLR 12/08 A3007 RMK AO2 SLP175 T01220078
KRMG 060553Z AUTO 00000KT 10SM CLR 12/09 A3008 RMK AO2 SLP181 T01220089 10211 20111 58000
KRMG 060453Z AUTO VRB03KT 10SM CLR 13/09 A3009 RMK AO2 SLP182 T01330089 402500133
KRMG 060353Z AUTO 36006KT 10SM CLR 15/10 A3009 RMK AO2 SLP183 T01500100
KRMG 060253Z AUTO 35007KT 10SM CLR 16/11 A3009 RMK AO2 SLP180 T01610106 51021
KRMG 060153Z AUTO 34006KT 10SM BKN050 17/11 A3007 RMK AO2 SLP176 T01720111
KRMG 060053Z AUTO 35010KT 10SM FEW041 BKN050 19/12 A3004 RMK AO2 SLP166 T01940117